Time,TemperatureF,DewpointF,PressureIn,WindDirection,WindDirectionDegrees,WindSpeedMPH,WindSpeedGustMPH,Humidity,HourlyPrecipIn,Conditions,Clouds,dailyrainin,SoftwareType,DateUTC
2013-05-26 00:03:00,57.0,45.0,30.28,NNW,348,2.0,5.0,65,0.00,,,0.00,,2013-05-26 04:03:00,
2013-05-26 00:12:00,57.0,45.0,30.28,NNW,348,2.0,5.0,65,0.00,,,0.00,,2013-05-26 04:12:00,
2013-05-26 00:23:00,56.0,44.0,30.28,NNW,348,3.0,5.0,65,0.00,,,0.00,,2013-05-26 04:23:00,
2013-05-26 00:33:00,56.0,45.0,30.28,NNW,334,2.0,4.0,66,0.00,,,0.00,,2013-05-26 04:33:00,
2013-05-26 00:42:00,56.0,45.0,30.28,NNW,334,2.0,4.0,66,0.00,,,0.00,,2013-05-26 04:42:00,
2013-05-26 00:52:00,55.0,44.0,30.29,NNW,334,2.0,3.0,66,0.00,,,0.00,,2013-05-26 04:52:00,
2013-05-26 01:02:00,55.0,43.0,30.28,NNW,338,0.0,2.0,65,0.00,,,0.00,,2013-05-26 05:02:00,
2013-05-26 01:12:00,55.0,43.0,30.28,NNW,338,0.0,2.0,65,0.00,,,0.00,,2013-05-26 05:12:00,
2013-05-26 01:22:00,54.0,42.0,30.28,NNW,338,0.0,1.0,63,0.00,,,0.00,,2013-05-26 05:22:00,
2013-05-26 01:32:00,54.0,43.0,30.28,NNE,28,0.0,2.0,66,0.00,,,0.00,,2013-05-26 05:32:00,
2013-05-26 01:42:00,54.0,43.0,30.28,NNE,28,0.0,2.0,66,0.00,,,0.00,,2013-05-26 05:42:00,
2013-05-26 01:52:00,53.0,41.0,30.28,NE,51,1.0,3.0,64,0.00,,,0.00,,2013-05-26 05:52:00,
2013-05-26 02:01:00,53.0,41.0,30.27,NE,46,1.0,5.0,64,0.00,,,0.00,,2013-05-26 06:01:00,
2013-05-26 02:12:00,53.0,41.0,30.27,NE,46,1.0,5.0,64,0.00,,,0.00,,2013-05-26 06:12:00,
2013-05-26 02:22:00,53.0,42.0,30.27,NE,44,2.0,6.0,66,0.00,,,0.00,,2013-05-26 06:22:00,
2013-05-26 02:32:00,53.0,42.0,30.27,East,83,3.0,5.0,66,0.00,,,0.00,,2013-05-26 06:32:00,
2013-05-26 02:42:00,53.0,42.0,30.27,East,83,3.0,5.0,66,0.00,,,0.00,,2013-05-26 06:42:00,
2013-05-26 02:52:00,52.0,41.0,30.27,ENE,73,2.0,5.0,67,0.00,,,0.00,,2013-05-26 06:52:00,
2013-05-26 03:01:00,52.0,41.0,30.27,East,88,4.0,7.0,66,0.00,,,0.00,,2013-05-26 07:01:00,
2013-05-26 03:11:00,52.0,41.0,30.27,East,88,4.0,7.0,66,0.00,,,0.00,,2013-05-26 07:11:00,
2013-05-26 03:22:00,52.0,41.0,30.27,ENE,71,5.0,8.0,66,0.00,,,0.00,,2013-05-26 07:22:00,
2013-05-26 03:32:00,52.0,41.0,30.27,East,84,4.0,8.0,66,0.00,,,0.00,,2013-05-26 07:32:00,
2013-05-26 03:42:00,52.0,41.0,30.27,East,84,4.0,8.0,66,0.00,,,0.00,,2013-05-26 07:42:00,
2013-05-26 03:52:00,51.0,40.0,30.27,ENE,57,2.0,5.0,67,0.00,,,0.00,,2013-05-26 07:52:00,
2013-05-26 04:01:00,51.0,40.0,30.26,East,89,3.0,7.0,67,0.00,,,0.00,,2013-05-26 08:01:00,
2013-05-26 04:12:00,51.0,40.0,30.26,East,89,3.0,7.0,67,0.00,,,0.00,,2013-05-26 08:12:00,
2013-05-26 04:21:00,51.0,41.0,30.27,East,94,4.0,8.0,68,0.00,,,0.00,,2013-05-26 08:21:00,
2013-05-26 04:32:00,50.0,41.0,30.26,East,81,4.0,8.0,70,0.00,,,0.00,,2013-05-26 08:32:00,
2013-05-26 04:42:00,50.0,41.0,30.26,East,81,4.0,8.0,70,0.00,,,0.00,,2013-05-26 08:42:00,
2013-05-26 04:53:00,49.0,40.0,30.26,ESE,103,4.0,7.0,72,0.00,,,0.00,,2013-05-26 08:53:00,
2013-05-26 05:01:00,49.0,40.0,30.26,ESE,113,2.0,4.0,72,0.00,,,0.00,,2013-05-26 09:01:00,
2013-05-26 05:11:00,48.0,39.0,30.26,East,88,2.0,3.0,72,0.00,,,0.00,,2013-05-26 09:11:00,
2013-05-26 05:21:00,48.0,39.0,30.26,East,88,2.0,3.0,72,0.00,,,0.00,,2013-05-26 09:21:00,
2013-05-26 05:33:00,48.0,39.0,30.27,East,92,2.0,3.0,72,0.00,,,0.00,,2013-05-26 09:33:00,
2013-05-26 05:43:00,48.0,39.0,30.27,East,92,2.0,3.0,72,0.00,,,0.00,,2013-05-26 09:43:00,
2013-05-26 05:53:00,48.0,39.0,30.27,East,83,4.0,7.0,72,0.00,,,0.00,,2013-05-26 09:53:00,
2013-05-26 06:02:00,48.0,39.0,30.28,East,89,4.0,7.0,70,0.00,,,0.00,,2013-05-26 10:02:00,
2013-05-26 06:12:00,48.0,39.0,30.28,East,89,4.0,7.0,70,0.00,,,0.00,,2013-05-26 10:12:00,
2013-05-26 06:23:00,48.0,39.0,30.29,ESE,113,3.0,4.0,70,0.00,,,0.00,,2013-05-26 10:23:00,
2013-05-26 06:33:00,47.0,38.0,30.29,ESE,107,4.0,6.0,72,0.00,,,0.00,,2013-05-26 10:33:00,
2013-05-26 06:42:00,47.0,38.0,30.29,ESE,107,4.0,6.0,72,0.00,,,0.00,,2013-05-26 10:42:00,
2013-05-26 06:52:00,47.0,38.0,30.28,East,101,4.0,7.0,72,0.00,,,0.00,,2013-05-26 10:52:00,
2013-05-26 07:03:00,48.0,39.0,30.28,East,95,3.0,7.0,72,0.00,,,0.00,,2013-05-26 11:03:00,
2013-05-26 07:11:00,48.0,39.0,30.28,East,95,3.0,7.0,72,0.00,,,0.00,,2013-05-26 11:11:00,
2013-05-26 07:22:00,48.0,39.0,30.29,East,101,3.0,6.0,71,0.00,,,0.00,,2013-05-26 11:22:00,
2013-05-26 07:32:00,49.0,39.0,30.29,East,101,4.0,7.0,69,0.00,,,0.00,,2013-05-26 11:32:00,
2013-05-26 07:42:00,49.0,39.0,30.29,East,101,4.0,7.0,69,0.00,,,0.00,,2013-05-26 11:42:00,
2013-05-26 07:52:00,50.0,40.0,30.29,ESE,122,3.0,6.0,68,0.00,,,0.00,,2013-05-26 11:52:00,
2013-05-26 08:02:00,51.0,39.0,30.29,ESE,122,4.0,7.0,64,0.00,,,0.00,,2013-05-26 12:02:00,
2013-05-26 08:12:00,51.0,39.0,30.29,ESE,122,4.0,7.0,64,0.00,,,0.00,,2013-05-26 12:12:00,
2013-05-26 08:22:00,53.0,39.0,30.29,East,97,6.0,9.0,59,0.00,,,0.00,,2013-05-26 12:22:00,
2013-05-26 08:32:00,55.0,40.0,30.30,East,86,5.0,10.0,57,0.00,,,0.00,,2013-05-26 12:32:00,
2013-05-26 08:42:00,55.0,40.0,30.30,East,86,5.0,10.0,57,0.00,,,0.00,,2013-05-26 12:42:00,
2013-05-26 08:52:00,56.0,40.0,30.30,ESE,121,6.0,13.0,55,0.00,,,0.00,,2013-05-26 12:52:00,
2013-05-26 09:02:00,56.0,40.0,30.31,SE,134,7.0,12.0,54,0.00,,,0.00,,2013-05-26 13:02:00,
2013-05-26 09:11:00,56.0,40.0,30.31,SE,134,7.0,12.0,54,0.00,,,0.00,,2013-05-26 13:11:00,
2013-05-26 09:22:00,57.0,41.0,30.31,ESE,111,7.0,11.0,54,0.00,,,0.00,,2013-05-26 13:22:00,
2013-05-26 09:32:00,57.0,40.0,30.31,ESE,117,10.0,14.0,53,0.00,,,0.00,,2013-05-26 13:32:00,
2013-05-26 09:42:00,57.0,40.0,30.31,ESE,117,10.0,14.0,53,0.00,,,0.00,,2013-05-26 13:42:00,
2013-05-26 09:52:00,58.0,40.0,30.31,ENE,72,7.0,14.0,52,0.00,,,0.00,,2013-05-26 13:52:00,
2013-05-26 10:02:00,58.0,40.0,30.32,ESE,123,7.0,13.0,52,0.00,,,0.00,,2013-05-26 14:02:00,
2013-05-26 10:11:00,58.0,40.0,30.32,ESE,123,7.0,13.0,52,0.00,,,0.00,,2013-05-26 14:11:00,
2013-05-26 10:22:00,59.0,40.0,30.31,ESE,123,8.0,12.0,50,0.00,,,0.00,,2013-05-26 14:22:00,
2013-05-26 10:32:00,59.0,40.0,30.32,ESE,111,9.0,15.0,50,0.00,,,0.00,,2013-05-26 14:32:00,
2013-05-26 10:42:00,60.0,42.0,30.31,ESE,121,7.0,15.0,52,0.00,,,0.00,,2013-05-26 14:42:00,
2013-05-26 10:52:00,60.0,42.0,30.31,ESE,121,7.0,15.0,52,0.00,,,0.00,,2013-05-26 14:52:00,
2013-05-26 11:01:00,61.0,41.0,30.31,ENE,78,10.0,16.0,48,0.00,,,0.00,,2013-05-26 15:01:00,
2013-05-26 11:12:00,61.0,41.0,30.31,ENE,78,10.0,16.0,48,0.00,,,0.00,,2013-05-26 15:12:00,
2013-05-26 11:22:00,61.0,41.0,30.30,ESE,103,10.0,16.0,48,0.00,,,0.00,,2013-05-26 15:22:00,
2013-05-26 11:33:00,62.0,42.0,30.31,SSE,159,9.0,14.0,48,0.00,,,0.00,,2013-05-26 15:33:00,
2013-05-26 11:43:00,62.0,42.0,30.31,SSE,159,9.0,14.0,48,0.00,,,0.00,,2013-05-26 15:43:00,
2013-05-26 11:53:00,62.0,41.0,30.30,SE,138,7.0,14.0,46,0.00,,,0.00,,2013-05-26 15:53:00,
2013-05-26 12:03:00,63.0,41.0,30.30,SE,142,8.0,13.0,45,0.00,,,0.00,,2013-05-26 16:03:00,
2013-05-26 12:12:00,63.0,41.0,30.30,SE,142,8.0,13.0,45,0.00,,,0.00,,2013-05-26 16:12:00,
2013-05-26 12:23:00,63.0,41.0,30.31,SSE,151,7.0,13.0,44,0.00,,,0.00,,2013-05-26 16:23:00,
2013-05-26 12:33:00,63.0,42.0,30.31,SSE,147,5.0,12.0,47,0.00,,,0.00,,2013-05-26 16:33:00,
2013-05-26 12:42:00,63.0,42.0,30.31,SSE,147,5.0,12.0,47,0.00,,,0.00,,2013-05-26 16:42:00,
2013-05-26 12:53:00,65.0,43.0,30.30,ESE,118,6.0,13.0,45,0.00,,,0.00,,2013-05-26 16:53:00,
2013-05-26 13:02:00,65.0,41.0,30.30,SSW,200,6.0,11.0,41,0.00,,,0.00,,2013-05-26 17:02:00,
2013-05-26 13:11:00,65.0,41.0,30.30,SSW,200,6.0,11.0,41,0.00,,,0.00,,2013-05-26 17:11:00,
2013-05-26 13:22:00,65.0,41.0,30.29,ESE,108,5.0,13.0,42,0.00,,,0.00,,2013-05-26 17:22:00,
2013-05-26 13:32:00,65.0,41.0,30.29,SE,136,3.0,10.0,41,0.00,,,0.00,,2013-05-26 17:32:00,
2013-05-26 13:42:00,65.0,41.0,30.29,SE,136,3.0,10.0,41,0.00,,,0.00,,2013-05-26 17:42:00,
2013-05-26 13:52:00,66.0,42.0,30.28,ENE,62,9.0,13.0,41,0.00,,,0.00,,2013-05-26 17:52:00,
2013-05-26 14:01:00,66.0,41.0,30.28,ESE,110,2.0,11.0,40,0.00,,,0.00,,2013-05-26 18:01:00,
2013-05-26 14:12:00,66.0,41.0,30.28,ESE,110,2.0,11.0,40,0.00,,,0.00,,2013-05-26 18:12:00,
2013-05-26 14:22:00,66.0,43.0,30.28,ESE,107,5.0,13.0,43,0.00,,,0.00,,2013-05-26 18:22:00,
2013-05-26 14:32:00,67.0,42.0,30.27,East,94,8.0,11.0,40,0.00,,,0.00,,2013-05-26 18:32:00,
2013-05-26 14:42:00,67.0,42.0,30.27,East,94,8.0,11.0,40,0.00,,,0.00,,2013-05-26 18:42:00,
2013-05-26 14:52:00,67.0,41.0,30.27,ESE,116,6.0,11.0,38,0.00,,,0.00,,2013-05-26 18:52:00,
2013-05-26 15:01:00,68.0,41.0,30.26,South,170,6.0,13.0,38,0.00,,,0.00,,2013-05-26 19:01:00,
2013-05-26 15:11:00,68.0,41.0,30.26,South,170,6.0,13.0,38,0.00,,,0.00,,2013-05-26 19:11:00,
2013-05-26 15:22:00,68.0,41.0,30.26,NNW,327,6.0,12.0,38,0.00,,,0.00,,2013-05-26 19:22:00,
2013-05-26 15:32:00,67.0,40.0,30.26,SE,126,3.0,7.0,37,0.00,,,0.00,,2013-05-26 19:32:00,
2013-05-26 15:42:00,67.0,40.0,30.26,SE,126,3.0,7.0,37,0.00,,,0.00,,2013-05-26 19:42:00,
2013-05-26 15:52:00,68.0,41.0,30.25,ESE,118,4.0,10.0,38,0.00,,,0.00,,2013-05-26 19:52:00,
2013-05-26 16:02:00,68.0,41.0,30.25,ESE,119,6.0,10.0,37,0.00,,,0.00,,2013-05-26 20:02:00,
2013-05-26 16:11:00,68.0,41.0,30.25,ESE,119,6.0,10.0,37,0.00,,,0.00,,2013-05-26 20:11:00,
2013-05-26 16:22:00,67.0,39.0,30.25,ESE,116,6.0,9.0,36,0.00,,,0.00,,2013-05-26 20:22:00,
2013-05-26 16:32:00,67.0,41.0,30.24,SE,132,3.0,10.0,38,0.00,,,0.00,,2013-05-26 20:32:00,
2013-05-26 16:42:00,67.0,41.0,30.24,SE,132,3.0,10.0,38,0.00,,,0.00,,2013-05-26 20:42:00,
2013-05-26 16:52:00,68.0,41.0,30.24,SSE,158,6.0,10.0,37,0.00,,,0.00,,2013-05-26 20:52:00,
2013-05-26 17:02:00,68.0,41.0,30.23,ESE,119,4.0,9.0,37,0.00,,,0.00,,2013-05-26 21:02:00,
2013-05-26 17:11:00,68.0,41.0,30.23,ESE,119,4.0,9.0,37,0.00,,,0.00,,2013-05-26 21:11:00,
2013-05-26 17:22:00,68.0,41.0,30.22,ESE,111,6.0,11.0,37,0.00,,,0.00,,2013-05-26 21:22:00,
2013-05-26 17:33:00,69.0,39.0,30.22,ESE,121,5.0,9.0,34,0.00,,,0.00,,2013-05-26 21:33:00,
2013-05-26 17:43:00,69.0,39.0,30.22,ESE,121,5.0,9.0,34,0.00,,,0.00,,2013-05-26 21:43:00,
2013-05-26 17:53:00,69.0,41.0,30.22,ESE,122,1.0,11.0,36,0.00,,,0.00,,2013-05-26 21:53:00,
2013-05-26 18:03:00,69.0,40.0,30.21,ESE,123,2.0,12.0,35,0.00,,,0.00,,2013-05-26 22:03:00,
2013-05-26 18:12:00,69.0,40.0,30.21,ESE,123,2.0,12.0,35,0.00,,,0.00,,2013-05-26 22:12:00,
2013-05-26 18:23:00,69.0,40.0,30.21,South,176,6.0,11.0,35,0.00,,,0.00,,2013-05-26 22:23:00,
2013-05-26 18:33:00,69.0,40.0,30.21,ESE,119,4.0,11.0,35,0.00,,,0.00,,2013-05-26 22:33:00,
2013-05-26 18:42:00,69.0,40.0,30.20,South,176,5.0,10.0,35,0.00,,,0.00,,2013-05-26 22:42:00,
2013-05-26 18:53:00,69.0,40.0,30.20,South,176,5.0,10.0,35,0.00,,,0.00,,2013-05-26 22:53:00,
2013-05-26 19:02:00,69.0,39.0,30.20,SE,128,7.0,11.0,34,0.00,,,0.00,,2013-05-26 23:02:00,
2013-05-26 19:12:00,69.0,39.0,30.20,SE,128,7.0,11.0,34,0.00,,,0.00,,2013-05-26 23:12:00,
2013-05-26 19:22:00,69.0,40.0,30.19,ESE,111,4.0,11.0,35,0.00,,,0.00,,2013-05-26 23:22:00,
2013-05-26 19:32:00,69.0,39.0,30.19,ESE,119,4.0,12.0,34,0.00,,,0.00,,2013-05-26 23:32:00,
2013-05-26 19:43:00,69.0,39.0,30.19,ESE,119,4.0,12.0,34,0.00,,,0.00,,2013-05-26 23:43:00,
2013-05-26 19:52:00,69.0,39.0,30.19,SE,139,5.0,11.0,34,0.00,,,0.00,,2013-05-26 23:52:00,
2013-05-26 20:02:00,68.0,39.0,30.17,ESE,103,5.0,12.0,35,0.00,,,0.00,,2013-05-27 00:02:00,
2013-05-26 20:11:00,68.0,39.0,30.17,ESE,103,5.0,12.0,35,0.00,,,0.00,,2013-05-27 00:11:00,
2013-05-26 20:22:00,67.0,39.0,30.18,SE,126,3.0,8.0,36,0.00,,,0.00,,2013-05-27 00:22:00,
2013-05-26 20:32:00,67.0,40.0,30.18,ESE,115,3.0,8.0,37,0.00,,,0.00,,2013-05-27 00:32:00,
2013-05-26 20:42:00,67.0,40.0,30.18,ESE,115,3.0,8.0,37,0.00,,,0.00,,2013-05-27 00:42:00,
2013-05-26 20:52:00,67.0,41.0,30.18,ESE,117,2.0,4.0,38,0.00,,,0.00,,2013-05-27 00:52:00,
2013-05-26 21:01:00,66.0,40.0,30.18,East,101,1.0,3.0,38,0.00,,,0.00,,2013-05-27 01:01:00,
2013-05-26 21:11:00,66.0,40.0,30.18,East,101,1.0,3.0,38,0.00,,,0.00,,2013-05-27 01:11:00,
2013-05-26 21:22:00,66.0,41.0,30.18,ESE,103,1.0,2.0,40,0.00,,,0.00,,2013-05-27 01:22:00,
2013-05-26 21:32:00,64.0,40.0,30.19,East,92,0.0,3.0,42,0.00,,,0.00,,2013-05-27 01:32:00,
2013-05-26 21:42:00,64.0,41.0,30.19,SE,126,0.0,3.0,43,0.00,,,0.00,,2013-05-27 01:42:00,
2013-05-26 21:52:00,64.0,41.0,30.19,SE,126,0.0,3.0,43,0.00,,,0.00,,2013-05-27 01:52:00,
2013-05-26 22:02:00,63.0,41.0,30.19,East,89,2.0,3.0,44,0.00,,,0.00,,2013-05-27 02:02:00,
2013-05-26 22:11:00,63.0,41.0,30.19,East,89,2.0,3.0,44,0.00,,,0.00,,2013-05-27 02:11:00,
2013-05-26 22:22:00,63.0,41.0,30.19,East,88,2.0,3.0,44,0.00,,,0.00,,2013-05-27 02:22:00,
2013-05-26 22:32:00,63.0,42.0,30.19,East,98,2.0,5.0,46,0.00,,,0.00,,2013-05-27 02:32:00,
2013-05-26 22:42:00,63.0,42.0,30.19,East,98,2.0,5.0,46,0.00,,,0.00,,2013-05-27 02:42:00,
2013-05-26 22:52:00,62.0,42.0,30.20,East,96,2.0,5.0,47,0.00,,,0.00,,2013-05-27 02:52:00,
2013-05-26 23:02:00,62.0,41.0,30.20,East,98,3.0,6.0,46,0.00,,,0.00,,2013-05-27 03:02:00,
2013-05-26 23:11:00,62.0,41.0,30.20,East,98,3.0,6.0,46,0.00,,,0.00,,2013-05-27 03:11:00,
2013-05-26 23:21:00,62.0,42.0,30.21,SW,229,2.0,6.0,48,0.00,,,0.00,,2013-05-27 03:21:00,
2013-05-26 23:33:00,63.0,41.0,30.21,ESE,115,2.0,5.0,44,0.00,,,0.00,,2013-05-27 03:33:00,
2013-05-26 23:43:00,63.0,41.0,30.21,ESE,115,2.0,5.0,44,0.00,,,0.00,,2013-05-27 03:43:00,
2013-05-26 23:53:00,63.0,42.0,30.20,SE,144,2.0,4.0,46,0.00,,,0.00,,2013-05-27 03:53:00,